ADDS METAR Data INFO
IDs: Format: Raw Decoded Include TAF

Data at: 0755 UTC 21 Nov 2017

KCOD 210656Z AUTO 33003KT 10SM CLR 03/M01 A2998 RMK AO2 SLP156 T00331011 401110028
KCOD 210556Z AUTO 31003KT 10SM FEW050 SCT065 04/M02 A2992 RMK AO2 SLP135 T00391022 10072 20028 53024
KCOD 210456Z AUTO 07003KT 10SM CLR 04/M02 A2988 RMK AO2 SLP123 T00391022
KCOD 210356Z AUTO 04012G15KT 10SM CLR 05/M02 A2984 RMK AO2 SLP106 T00501022
KCOD 210256Z AUTO 29011G20KT 10SM CLR 06/M01 A2984 RMK AO2 SLP102 T00611006 51012
KCOD 210156Z AUTO 30009G22KT 10SM CLR 07/M02 A2983 RMK AO2 SLP098 T00671017
KCOD 210056Z AUTO VRB06KT 10SM SCT038 06/M02 A2981 RMK AO2 SLP092 T00611017
KCOD 202356Z AUTO 26014G25KT 10SM FEW110 06/M02 A2980 RMK AO2 SLP088 T00611017 10111 20061 50007
KCOD 202256Z AUTO 28011G25KT 10SM CLR 08/M03 A2981 RMK AO2 PK WND 28028/2202 SLP094 T00781033
KCOD 202156Z AUTO 27015G25KT 10SM CLR 09/M03 A2978 RMK AO2 PK WND 26032/2139 SLP076 T00891028
KCOD 202056Z AUTO 26009G28KT 220V300 10SM CLR 10/M03 A2977 RMK AO2 PK WND 25032/2023 SLP071 T01001028 58003
KCOD 201956Z AUTO 25014G20KT 210V280 10SM CLR 11/M04 A2978 RMK AO2 SLP079 T01061039
KCOD 201856Z AUTO 26011G25KT 10SM CLR 09/M04 A2979 RMK AO2 PK WND 26034/1805 SLP081 T00941039
KCOD 201756Z AUTO 26020G37KT 10SM CLR 09/M04 A2978 RMK AO2 PK WND 25037/1754 SLP081 T00891044 10100 20083 50022
KCOD 201656Z AUTO 25014G28KT 210V290 10SM CLR 09/M06 A2980 RMK AO2 PK WND 28031/1641 SLP085 T00891061
KCOD 201556Z AUTO 22009G17KT 10SM CLR 09/M09 A2975 RMK AO2 SLP066 T00941089
KCOD 201456Z AUTO 27009G18KT 200V340 10SM CLR 09/M09 A2971 RMK AO2 SLP054 T00891094 55005
KCOD 201356Z AUTO 25016G32KT 210V300 10SM CLR 08/M10 A2969 RMK AO2 PK WND 25038/1323 PRESRR SLP047 T00831100
KCOD 201256Z AUTO VRB04G24KT 10SM CLR 09/M12 A2968 RMK AO2 SLP046 T00891122
KCOD 201156Z AUTO 00000KT 10SM CLR 09/M14 A2973 RMK AO2 SLP059 T00891139 10106 20056 55008
KCOD 201056Z AUTO 07011KT 10SM CLR 08/M13 A2970 RMK AO2 WSHFT 1028 SLP053 T00781133
KCOD 201053Z AUTO 06009KT 10SM CLR 08/M14 A2971 RMK AO2 WSHFT 1028
KCOD 200956Z AUTO 21010G22KT 150V290 10SM CLR 10/M17 A2975 RMK AO2 SLP064 T01001167
KCOD 200856Z AUTO 24010G18KT 10SM CLR 09/M17 A2977 RMK AO2 SLP072 T00941172 56014
KCOD 200756Z AUTO 20008KT 10SM CLR 07/M15 A2977 RMK AO2 SLP078 T00671150
KCOD 200656Z AUTO 26013G24KT 10SM CLR 08/M17 A2979 RMK AO2 PK WND 26026/0634 SLP088 T00831167 401001044
KCOD 200556Z AUTO 24012G17KT 210V270 10SM CLR 08/M16 A2982 RMK AO2 SLP105 T00781161 10083 20067 55002
KCOD 200456Z AUTO 26013G19KT 10SM CLR 08/M17 A2981 RMK AO2 PK WND 26029/0408 SLP106 T00781172
KCOD 200356Z AUTO 26015G28KT 10SM CLR 08/M17 A2980 RMK AO2 PK WND 25028/0347 SLP102 T00831172
KCOD 200256Z AUTO 29016G23KT 10SM CLR 07/M16 A2982 RMK AO2 PK WND 25030/0207 SLP116 T00721161 58007
KCOD 200156Z AUTO 25018G24KT 10SM CLR 08/M17 A2983 RMK AO2 PRESFR SLP102 T00781167
KCOD 200056Z AUTO 29011G21KT 240V330 10SM CLR 07/M16 A2986 RMK AO2 SLP117 T00721156
KCOD 192356Z AUTO 29012G21KT 250V320 10SM CLR 08/M17 A2985 RMK AO2 PK WND 26027/2337 SLP112 T00831167 10100 20017 56014
KCOD 192256Z AUTO 26015G22KT 10SM CLR 09/M17 A2986 RMK AO2 PK WND 24029/2234 SLP121 T00891172
KCOD 192156Z AUTO 26019G28KT 10SM CLR 10/M16 A2987 RMK AO2 PK WND 26028/2154 WSHFT 2133 SLP125 T01001156
KCOD 192056Z AUTO 10SM CLR 09/M16 A2990 RMK AO2 SLP140 T00891161 56028 $
KCOD 191956Z AUTO 28008G16KT 10SM CLR 08/M16 A2992 RMK AO2 SLP144 T00831156